createdAt,value
2019-03-22T00:01:16.406Z,10.67
2019-03-22T00:03:46.855Z,10.13
2019-03-22T00:06:16.958Z,11.10
2019-03-22T00:08:46.697Z,14.83
2019-03-22T00:11:16.420Z,11.37
2019-03-22T00:13:46.181Z,12.43
2019-03-22T00:16:18.618Z,11.50
2019-03-22T00:18:48.454Z,11.57
2019-03-22T00:21:18.992Z,13.80
2019-03-22T00:23:49.486Z,14.60
2019-03-22T00:26:19.480Z,11.93
2019-03-22T00:28:49.234Z,13.37
2019-03-22T00:31:19.144Z,13.03
2019-03-22T00:33:48.979Z,12.97
2019-03-22T00:36:18.720Z,17.13
2019-03-22T00:38:48.456Z,12.27
2019-03-22T00:41:18.574Z,10.33
2019-03-22T00:43:49.357Z,11.93
2019-03-22T00:46:19.100Z,11.70
2019-03-22T00:48:48.813Z,12.10
2019-03-22T00:51:19.363Z,10.87
2019-03-22T00:53:50.475Z,13.37
2019-03-22T00:56:21.319Z,12.00
2019-03-22T00:58:51.330Z,12.50
2019-03-22T01:01:21.739Z,11.77
2019-03-22T01:03:52.558Z,13.73
2019-03-22T01:06:22.321Z,15.00
2019-03-22T01:08:52.438Z,12.93
2019-03-22T01:11:22.838Z,11.07
2019-03-22T01:13:53.628Z,12.97
2019-03-22T01:16:26.783Z,11.70
2019-03-22T01:18:57.992Z,11.73
2019-03-22T01:21:30.124Z,9.67
2019-03-22T01:24:01.908Z,12.17
2019-03-22T01:26:35.544Z,12.63
2019-03-22T01:29:05.525Z,12.23
2019-03-22T01:31:39.337Z,11.90
2019-03-22T01:34:12.441Z,12.13
2019-03-22T01:36:49.637Z,12.00
2019-03-22T01:39:21.697Z,12.67
2019-03-22T01:41:52.323Z,11.40
2019-03-22T01:44:22.613Z,10.30
2019-03-22T01:46:53.000Z,10.17
2019-03-22T01:49:25.777Z,7.47
2019-03-22T01:51:55.768Z,11.30
2019-03-22T01:54:25.497Z,8.67
2019-03-22T01:56:57.294Z,10.37
2019-03-22T01:59:31.964Z,10.90
2019-03-22T02:02:03.963Z,11.97
2019-03-22T02:04:35.387Z,11.40
2019-03-22T02:07:05.846Z,10.90
2019-03-22T02:09:37.986Z,9.07
2019-03-22T02:12:08.774Z,11.23
2019-03-22T02:14:39.348Z,9.23
2019-03-22T02:17:09.872Z,8.63
2019-03-22T02:19:40.202Z,13.20
2019-03-22T02:22:11.257Z,11.27
2019-03-22T02:24:41.883Z,9.80
2019-03-22T02:27:18.428Z,9.03
2019-03-22T02:29:48.909Z,10.67
2019-03-22T02:32:18.981Z,8.67
2019-03-22T02:34:50.351Z,8.87
2019-03-22T02:37:20.738Z,10.07
2019-03-22T02:39:52.024Z,11.60
2019-03-22T02:42:28.892Z,10.10
2019-03-22T02:44:59.210Z,9.07
2019-03-22T02:47:30.077Z,14.53
2019-03-22T02:50:11.607Z,12.20
2019-03-22T02:52:33.383Z,12.53
2019-03-22T02:55:04.727Z,11.93
2019-03-22T02:57:36.138Z,11.70
2019-03-22T03:00:09.050Z,11.70
2019-03-22T03:02:39.059Z,9.97
2019-03-22T03:05:11.631Z,9.83
2019-03-22T03:07:41.364Z,12.00
2019-03-22T03:10:12.345Z,10.47
2019-03-22T03:12:43.169Z,13.73
2019-03-22T03:15:15.053Z,10.30
2019-03-22T03:17:45.280Z,10.80
2019-03-22T03:20:16.007Z,11.50
2019-03-22T03:22:49.218Z,9.80
2019-03-22T03:25:22.001Z,10.37
2019-03-22T03:27:52.287Z,12.47
2019-03-22T03:30:22.828Z,12.43
2019-03-22T03:32:53.243Z,12.50
2019-03-22T03:35:23.535Z,10.93
2019-03-22T03:37:53.937Z,11.73
2019-03-22T03:40:24.304Z,11.03
2019-03-22T03:42:54.936Z,14.73
2019-03-22T03:45:32.926Z,13.07
2019-03-22T03:48:07.298Z,12.07
2019-03-22T03:50:39.250Z,11.27
2019-03-22T03:53:09.456Z,12.50
2019-03-22T03:55:41.923Z,11.87
2019-03-22T03:58:13.478Z,15.00
2019-03-22T04:00:43.744Z,11.77
2019-03-22T04:03:14.123Z,14.13
2019-03-22T04:05:48.131Z,12.83
2019-03-22T04:08:18.523Z,11.70
2019-03-22T04:10:50.272Z,11.30
2019-03-22T04:13:23.030Z,14.60
2019-03-22T04:15:58.096Z,15.27
2019-03-22T04:18:28.543Z,11.47
2019-03-22T04:20:58.545Z,13.80
2019-03-22T04:23:28.295Z,14.37
2019-03-22T04:25:58.362Z,12.13
2019-03-22T04:28:35.617Z,12.80
2019-03-22T04:31:13.756Z,14.10
2019-03-22T04:33:43.863Z,13.60
2019-03-22T04:36:19.111Z,11.90
2019-03-22T04:38:49.409Z,12.37
2019-03-22T04:41:20.011Z,12.17
2019-03-22T04:43:50.895Z,9.90
2019-03-22T04:46:21.074Z,14.47
2019-03-22T04:48:52.554Z,11.53
2019-03-22T04:51:22.907Z,13.73
2019-03-22T04:54:06.194Z,10.40
2019-03-22T04:56:39.589Z,11.70
2019-03-22T04:59:19.290Z,12.70
2019-03-22T05:01:50.650Z,10.73
2019-03-22T05:04:24.461Z,13.67
2019-03-22T05:06:57.407Z,10.90
2019-03-22T05:09:38.456Z,12.43
2019-03-22T05:12:20.293Z,13.23
2019-03-22T05:14:51.371Z,14.27
2019-03-22T05:17:22.089Z,14.97
2019-03-22T05:19:56.970Z,13.40
2019-03-22T05:22:29.110Z,13.60
2019-03-22T05:25:03.547Z,13.33
2019-03-22T05:27:40.185Z,12.80
2019-03-22T05:30:15.983Z,15.50
2019-03-22T05:32:46.006Z,12.80
2019-03-22T05:35:16.133Z,14.23
2019-03-22T05:37:48.613Z,14.93
2019-03-22T05:40:18.645Z,16.17
2019-03-22T05:42:48.690Z,14.57
2019-03-22T05:45:22.423Z,14.03
2019-03-22T05:47:53.332Z,13.87
2019-03-22T05:50:23.638Z,17.13
2019-03-22T05:52:57.905Z,13.87
2019-03-22T05:55:28.508Z,14.40
2019-03-22T05:58:00.648Z,13.50
2019-03-22T06:00:32.095Z,12.43
2019-03-22T06:03:05.627Z,14.40
2019-03-22T06:05:41.651Z,12.57
2019-03-22T06:08:13.716Z,13.10
2019-03-22T06:10:43.797Z,12.63
2019-03-22T06:13:15.655Z,14.73
2019-03-22T06:15:48.873Z,17.17
2019-03-22T06:18:21.084Z,15.50
2019-03-22T06:20:51.534Z,14.60
2019-03-22T06:23:21.817Z,12.57
2019-03-22T06:25:52.132Z,13.83
2019-03-22T06:28:22.250Z,12.67
2019-03-22T06:30:56.445Z,13.83
2019-03-22T06:33:28.233Z,17.10
2019-03-22T06:35:59.709Z,12.00
2019-03-22T06:38:29.702Z,12.63
2019-03-22T06:40:59.538Z,12.97
2019-03-22T06:43:30.361Z,12.87
2019-03-22T06:46:00.851Z,12.63
2019-03-22T06:48:30.967Z,10.20
2019-03-22T06:51:00.995Z,13.30
2019-03-22T06:53:31.407Z,14.67
2019-03-22T06:56:01.644Z,13.80
2019-03-22T06:58:33.343Z,12.70
2019-03-22T07:01:06.368Z,16.07
2019-03-22T07:03:36.211Z,24.23
2019-03-22T07:06:06.273Z,18.33
2019-03-22T07:08:36.275Z,16.17
2019-03-22T07:11:06.057Z,19.03
2019-03-22T07:13:36.895Z,18.47
2019-03-22T07:16:10.139Z,15.37
2019-03-22T07:18:42.073Z,17.30
2019-03-22T07:21:13.681Z,14.77
2019-03-22T07:23:46.329Z,14.63
2019-03-22T07:26:17.037Z,17.40
2019-03-22T07:28:48.785Z,15.20
2019-03-22T07:31:20.362Z,16.90
2019-03-22T07:33:53.639Z,18.30
2019-03-22T07:36:26.984Z,15.23
2019-03-22T07:38:57.149Z,16.73
2019-03-22T07:41:26.900Z,19.13
2019-03-22T07:43:56.985Z,18.00
2019-03-22T07:46:27.054Z,19.17
2019-03-22T07:48:57.434Z,18.47
2019-03-22T07:51:28.123Z,17.50
2019-03-22T07:54:03.466Z,17.77
2019-03-22T07:56:32.231Z,17.67
2019-03-22T07:59:02.213Z,21.00
2019-03-22T08:01:33.457Z,17.07
2019-03-22T08:04:06.849Z,18.90
2019-03-22T08:06:37.108Z,15.33
2019-03-22T08:09:11.129Z,16.90
2019-03-22T08:11:41.477Z,16.07
2019-03-22T08:14:12.319Z,14.53
2019-03-22T08:16:43.389Z,18.40
2019-03-22T08:19:13.521Z,15.23
2019-03-22T08:21:44.468Z,16.90
2019-03-22T08:24:15.352Z,16.27
2019-03-22T08:26:53.173Z,16.97
2019-03-22T08:29:26.725Z,16.07
2019-03-22T08:31:57.903Z,15.03
2019-03-22T08:34:27.890Z,15.13
2019-03-22T08:36:58.790Z,15.90
2019-03-22T08:39:29.877Z,18.70
2019-03-22T08:42:02.324Z,15.90
2019-03-22T08:44:33.861Z,20.17
2019-03-22T08:47:03.728Z,16.23
2019-03-22T08:49:33.666Z,16.83
2019-03-22T08:52:05.806Z,19.43
2019-03-22T08:54:38.410Z,13.83
2019-03-22T08:57:08.921Z,15.30
2019-03-22T08:59:40.252Z,18.03
2019-03-22T09:02:10.260Z,14.93
2019-03-22T09:04:41.209Z,13.93
2019-03-22T09:07:11.301Z,14.53
2019-03-22T09:09:42.067Z,14.87
2019-03-22T09:12:11.835Z,14.43
2019-03-22T09:14:41.957Z,14.17
2019-03-22T09:17:22.526Z,15.40
2019-03-22T09:19:52.423Z,14.97
2019-03-22T09:22:25.273Z,13.23
2019-03-22T09:24:56.422Z,17.30
2019-03-22T09:27:36.778Z,15.70
2019-03-22T09:30:07.909Z,14.53
2019-03-22T09:32:37.638Z,12.63
2019-03-22T09:35:07.931Z,12.67
2019-03-22T09:37:37.970Z,12.30
2019-03-22T09:40:08.604Z,12.37
2019-03-22T09:42:40.528Z,12.03
2019-03-22T09:45:10.655Z,13.37
2019-03-22T09:47:40.797Z,13.97
2019-03-22T09:50:10.886Z,11.27
2019-03-22T09:52:41.677Z,12.17
2019-03-22T09:55:13.659Z,12.97
2019-03-22T09:57:43.003Z,14.03
2019-03-22T10:00:14.959Z,13.63
2019-03-22T10:02:45.579Z,12.27
2019-03-22T10:05:16.177Z,9.37
2019-03-22T10:07:46.489Z,11.03
2019-03-22T10:10:16.887Z,11.40
2019-03-22T10:12:46.712Z,13.00
2019-03-22T10:15:16.409Z,9.20
2019-03-22T10:17:50.562Z,12.27
2019-03-22T10:20:20.730Z,10.77
2019-03-22T10:22:51.415Z,9.90
2019-03-22T10:25:21.890Z,9.73
2019-03-22T10:27:54.117Z,9.47
2019-03-22T10:30:24.149Z,11.20
2019-03-22T10:32:55.088Z,8.87
2019-03-22T10:35:26.602Z,11.60
2019-03-22T10:38:00.943Z,10.23
2019-03-22T10:40:42.980Z,9.57
2019-03-22T10:43:17.227Z,9.27
2019-03-22T10:45:49.287Z,8.77
2019-03-22T10:48:19.183Z,10.80
2019-03-22T10:50:49.834Z,9.43
2019-03-22T10:53:20.707Z,11.93
2019-03-22T10:56:12.260Z,11.23
2019-03-22T10:58:42.306Z,8.27
2019-03-22T11:01:12.854Z,7.73
2019-03-22T11:03:43.668Z,7.63
2019-03-22T11:06:26.153Z,11.70
2019-03-22T11:08:55.601Z,10.57
2019-03-22T11:11:25.763Z,12.87
2019-03-22T11:13:56.077Z,25.20
2019-03-22T11:16:25.828Z,15.23
2019-03-22T11:18:55.604Z,13.13
2019-03-22T11:21:25.487Z,10.70
2019-03-22T11:23:55.255Z,8.47
2019-03-22T11:26:29.462Z,8.10
2019-03-22T11:29:00.029Z,10.90
2019-03-22T11:31:39.532Z,9.43
2019-03-22T11:34:04.771Z,13.00
2019-03-22T11:36:35.977Z,9.97
2019-03-22T11:39:16.879Z,9.30
2019-03-22T11:42:12.066Z,13.33
2019-03-22T11:44:53.224Z,13.37
2019-03-22T11:47:25.351Z,11.60
2019-03-22T11:49:56.208Z,9.80
2019-03-22T11:52:30.945Z,8.33
2019-03-22T11:55:01.831Z,10.30
2019-03-22T11:57:33.452Z,9.67
2019-03-22T12:00:03.630Z,14.83
2019-03-22T12:02:34.029Z,10.73
2019-03-22T12:05:03.983Z,11.30
2019-03-22T12:07:34.226Z,10.50
2019-03-22T12:10:05.847Z,10.30
2019-03-22T12:12:37.728Z,8.80
2019-03-22T12:15:10.888Z,10.97
2019-03-22T12:17:42.231Z,10.13
2019-03-22T12:20:18.133Z,7.97
2019-03-22T12:22:50.153Z,9.17
2019-03-22T12:25:30.969Z,9.77
2019-03-22T12:28:01.531Z,7.77
2019-03-22T12:30:37.212Z,8.40
2019-03-22T12:33:17.381Z,11.77
2019-03-22T12:35:49.951Z,11.93
2019-03-22T12:38:41.598Z,8.87
2019-03-22T12:41:22.936Z,14.30
2019-03-22T12:44:04.632Z,8.77
2019-03-22T12:46:37.994Z,9.23
2019-03-22T12:49:13.178Z,8.50
2019-03-22T12:51:49.264Z,8.03
2019-03-22T12:54:19.736Z,6.93
2019-03-22T12:56:51.766Z,8.83
2019-03-22T12:59:30.024Z,8.83
2019-03-22T13:02:04.262Z,7.43
2019-03-22T13:04:34.294Z,7.63
2019-03-22T13:07:05.096Z,9.73
2019-03-22T13:09:55.454Z,8.73
2019-03-22T13:12:25.280Z,8.53
2019-03-22T13:14:56.686Z,9.43
2019-03-22T13:17:26.903Z,9.40
2019-03-22T13:19:58.251Z,7.73
2019-03-22T13:22:28.000Z,7.87
2019-03-22T13:24:57.729Z,7.77
2019-03-22T13:27:29.386Z,7.40
2019-03-22T13:30:00.435Z,7.90
2019-03-22T13:32:32.436Z,7.27
2019-03-22T13:35:02.189Z,8.23
2019-03-22T13:37:34.179Z,7.10
2019-03-22T13:40:09.158Z,8.10
2019-03-22T13:42:41.439Z,5.50
2019-03-22T13:45:12.397Z,7.03
2019-03-22T13:47:42.685Z,8.27
2019-03-22T13:50:12.781Z,6.03
2019-03-22T13:52:43.382Z,6.43
2019-03-22T13:55:13.123Z,5.57
2019-03-22T13:57:42.880Z,7.00
2019-03-22T14:00:12.728Z,7.70
2019-03-22T14:02:42.462Z,9.07
2019-03-22T14:05:12.225Z,8.23
2019-03-22T14:07:42.550Z,6.50
2019-03-22T14:10:20.617Z,10.83
2019-03-22T14:12:51.259Z,7.83
2019-03-22T14:15:22.975Z,7.90
2019-03-22T14:17:54.132Z,9.50
2019-03-22T14:20:24.742Z,6.33
2019-03-22T14:22:55.671Z,6.50
2019-03-22T14:25:25.919Z,6.57
2019-03-22T14:27:55.722Z,7.57
2019-03-22T14:30:26.748Z,5.60
2019-03-22T14:32:59.120Z,7.50
2019-03-22T14:35:30.664Z,7.23
2019-03-22T14:38:00.443Z,8.43
2019-03-22T14:40:31.073Z,6.67
2019-03-22T14:43:00.802Z,8.03
2019-03-22T14:45:31.731Z,7.00
2019-03-22T14:48:23.897Z,7.50
2019-03-22T14:50:53.874Z,8.60
2019-03-22T14:53:26.237Z,8.03
2019-03-22T14:55:56.518Z,5.27
2019-03-22T14:58:26.665Z,5.57
2019-03-22T15:00:57.314Z,6.27
2019-03-22T15:03:28.113Z,7.63
2019-03-22T15:05:58.017Z,6.23
2019-03-22T15:08:27.733Z,8.47
2019-03-22T15:10:57.837Z,6.03
2019-03-22T15:13:52.529Z,5.67
2019-03-22T15:16:51.080Z,7.90
2019-03-22T15:19:50.733Z,6.93
2019-03-22T15:22:37.850Z,5.50
2019-03-22T15:25:27.523Z,17.97
2019-03-22T15:28:10.922Z,5.77
2019-03-22T15:30:59.419Z,8.57
2019-03-22T15:33:55.037Z,5.27
2019-03-22T15:36:47.335Z,5.97
2019-03-22T15:39:41.659Z,11.60
2019-03-22T15:42:11.640Z,5.60
2019-03-22T15:44:41.390Z,5.57
2019-03-22T15:47:11.269Z,5.90
2019-03-22T15:49:41.931Z,5.97
2019-03-22T15:52:12.298Z,4.60
2019-03-22T15:54:42.030Z,4.30
2019-03-22T15:57:12.876Z,6.00
2019-03-22T15:59:43.263Z,6.37
2019-03-22T16:02:13.130Z,4.22
2019-03-22T16:04:44.183Z,6.60
2019-03-22T16:07:16.237Z,4.60
2019-03-22T16:09:46.680Z,5.90
2019-03-22T16:12:18.739Z,4.03
2019-03-22T16:14:50.300Z,4.67
2019-03-22T16:17:20.452Z,8.53
2019-03-22T16:20:10.788Z,5.90
2019-03-22T16:22:42.721Z,8.03
2019-03-22T16:25:15.034Z,5.70
2019-03-22T16:27:44.798Z,9.30
2019-03-22T16:30:15.070Z,6.67
2019-03-22T16:32:44.868Z,5.30
2019-03-22T16:35:14.703Z,5.10
2019-03-22T16:37:44.743Z,6.78
2019-03-22T16:40:23.813Z,8.40
2019-03-22T16:42:52.284Z,9.00
2019-03-22T16:45:36.890Z,7.60
2019-03-22T16:48:06.944Z,10.95
2019-03-22T16:50:40.044Z,8.43
2019-03-22T16:53:13.801Z,7.50
2019-03-22T16:55:44.376Z,8.35
2019-03-22T16:58:41.194Z,9.18
2019-03-22T17:01:22.492Z,9.68
2019-03-22T17:03:53.169Z,8.33
2019-03-22T17:06:24.166Z,8.63
2019-03-22T17:08:57.072Z,9.08
2019-03-22T17:11:28.830Z,9.60
2019-03-22T17:13:58.912Z,10.23
2019-03-22T17:16:28.925Z,8.45
2019-03-22T17:18:59.185Z,9.40
2019-03-22T17:21:34.316Z,8.50
2019-03-22T17:24:05.073Z,10.60
2019-03-22T17:26:34.836Z,20.90
2019-03-22T17:29:06.973Z,13.03
2019-03-22T17:31:41.379Z,23.33
2019-03-22T17:34:14.411Z,7.67
2019-03-22T17:36:43.236Z,7.47
2019-03-22T17:39:13.361Z,8.17
2019-03-22T17:41:45.199Z,6.80
2019-03-22T17:44:19.115Z,8.77
2019-03-22T17:46:48.845Z,9.33
2019-03-22T17:49:18.871Z,8.33
2019-03-22T17:51:50.441Z,7.60
2019-03-22T17:54:20.201Z,9.50
2019-03-22T17:56:49.936Z,14.60
2019-03-22T17:59:19.695Z,7.23
2019-03-22T18:01:50.886Z,10.40
2019-03-22T18:04:24.367Z,6.13
2019-03-22T18:06:54.307Z,8.10
2019-03-22T18:09:24.209Z,8.90
2019-03-22T18:11:54.351Z,6.10
2019-03-22T18:14:27.150Z,9.00
2019-03-22T18:16:57.192Z,9.87
2019-03-22T18:19:26.960Z,28.80
2019-03-22T18:21:57.912Z,21.20
2019-03-22T18:24:27.952Z,17.87
2019-03-22T18:26:57.977Z,16.23
2019-03-22T18:29:27.719Z,13.00
2019-03-22T18:32:00.141Z,14.50
2019-03-22T18:34:34.613Z,12.47
2019-03-22T18:37:05.241Z,46.27
2019-03-22T18:39:36.249Z,19.17
2019-03-22T18:42:09.970Z,10.03
2019-03-22T18:44:40.230Z,12.03
2019-03-22T18:47:10.579Z,13.33
2019-03-22T18:49:43.449Z,12.10
2019-03-22T18:52:14.992Z,11.60
2019-03-22T18:54:49.227Z,10.00
2019-03-22T18:57:18.970Z,8.23
2019-03-22T18:59:49.369Z,9.77
2019-03-22T19:02:21.374Z,10.07
2019-03-22T19:04:53.515Z,7.87
2019-03-22T19:07:33.947Z,7.60
2019-03-22T19:10:06.180Z,12.17
2019-03-22T19:12:35.935Z,9.33
2019-03-22T19:15:07.334Z,9.60
2019-03-22T19:17:37.214Z,10.90
2019-03-22T19:20:07.567Z,10.40
2019-03-22T19:22:59.368Z,11.80
2019-03-22T19:25:29.474Z,14.60
2019-03-22T19:28:01.294Z,8.27
2019-03-22T19:30:31.280Z,9.63
2019-03-22T19:33:01.024Z,8.47
2019-03-22T19:35:30.849Z,12.07
2019-03-22T19:38:00.598Z,13.60
2019-03-22T19:40:30.755Z,46.37
2019-03-22T19:43:00.985Z,71.17
2019-03-22T19:45:31.674Z,112.33
2019-03-22T19:48:01.829Z,103.60
2019-03-22T19:50:31.846Z,42.80
2019-03-22T19:53:02.199Z,48.43
2019-03-22T19:55:32.452Z,21.37
2019-03-22T19:58:02.853Z,35.40
2019-03-22T20:00:33.112Z,19.53
2019-03-22T20:03:03.376Z,26.43
2019-03-22T20:05:34.120Z,21.87
2019-03-22T20:08:04.026Z,16.30
2019-03-22T20:10:34.111Z,17.80
2019-03-22T20:13:04.932Z,17.30
2019-03-22T20:15:35.066Z,15.70
2019-03-22T20:18:04.957Z,14.93
2019-03-22T20:20:36.243Z,12.03
2019-03-22T20:23:07.352Z,13.00
2019-03-22T20:25:38.019Z,12.90
2019-03-22T20:28:08.379Z,7.70
2019-03-22T20:30:41.870Z,8.43
2019-03-22T20:33:16.712Z,7.83
2019-03-22T20:35:46.485Z,9.57
2019-03-22T20:38:17.142Z,9.13
2019-03-22T20:40:50.199Z,6.73
2019-03-22T20:43:21.271Z,9.90
2019-03-22T20:45:52.371Z,7.87
2019-03-22T20:48:27.335Z,10.53
2019-03-22T20:51:00.451Z,8.03
2019-03-22T20:53:32.969Z,16.00
2019-03-22T20:56:05.118Z,18.20
2019-03-22T20:58:37.439Z,15.03
2019-03-22T21:01:07.586Z,12.97
2019-03-22T21:03:39.764Z,11.50
2019-03-22T21:06:10.658Z,13.23
2019-03-22T21:08:41.090Z,11.50
2019-03-22T21:11:10.818Z,10.47
2019-03-22T21:13:41.312Z,8.47
2019-03-22T21:16:14.592Z,11.77
2019-03-22T21:18:45.775Z,11.83
2019-03-22T21:21:15.794Z,28.27
2019-03-22T21:23:45.989Z,15.63
2019-03-22T21:26:15.816Z,9.87
2019-03-22T21:28:45.651Z,10.17
2019-03-22T21:31:15.387Z,12.37
2019-03-22T21:33:45.742Z,13.00
2019-03-22T21:36:15.794Z,8.77
2019-03-22T21:38:45.962Z,10.40
2019-03-22T21:41:16.614Z,8.37
2019-03-22T21:43:46.698Z,9.53
2019-03-22T21:46:17.466Z,10.93
2019-03-22T21:48:47.227Z,10.33
2019-03-22T21:51:16.968Z,10.27
2019-03-22T21:53:46.787Z,9.20
2019-03-22T21:56:16.526Z,7.97
2019-03-22T21:58:46.298Z,7.70
2019-03-22T22:01:16.141Z,10.10
2019-03-22T22:03:46.680Z,8.43
2019-03-22T22:06:34.246Z,13.57
2019-03-22T22:09:05.831Z,11.50
2019-03-22T22:11:35.568Z,11.77
2019-03-22T22:14:05.315Z,12.90
2019-03-22T22:16:35.328Z,13.70
2019-03-22T22:19:05.078Z,13.87
2019-03-22T22:21:36.837Z,9.50
2019-03-22T22:24:07.708Z,11.93
2019-03-22T22:26:39.279Z,13.67
2019-03-22T22:29:11.736Z,10.83
2019-03-22T22:31:43.651Z,9.67
2019-03-22T22:34:13.779Z,9.87
2019-03-22T22:36:44.434Z,9.47
2019-03-22T22:39:15.198Z,9.00
2019-03-22T22:41:45.104Z,9.53
2019-03-22T22:44:15.144Z,10.10
2019-03-22T22:47:05.718Z,11.50
2019-03-22T22:49:35.672Z,11.53
2019-03-22T22:52:05.840Z,15.23
2019-03-22T22:54:36.638Z,11.40
2019-03-22T22:57:08.081Z,12.13
2019-03-22T22:59:37.822Z,12.33
2019-03-22T23:02:08.191Z,10.43
2019-03-22T23:04:38.048Z,11.43
2019-03-22T23:07:10.195Z,10.73
2019-03-22T23:09:43.570Z,9.73
2019-03-22T23:12:15.638Z,13.10
2019-03-22T23:14:45.986Z,11.47
2019-03-22T23:17:18.575Z,10.00
2019-03-22T23:19:50.358Z,8.90
2019-03-22T23:22:24.114Z,10.87
2019-03-22T23:24:57.665Z,9.40
2019-03-22T23:27:29.057Z,12.53
2019-03-22T23:30:01.956Z,9.87
2019-03-22T23:32:31.974Z,10.50
2019-03-22T23:35:02.044Z,11.63
2019-03-22T23:37:32.431Z,9.80
2019-03-22T23:40:02.759Z,9.63
2019-03-22T23:42:35.973Z,9.33
2019-03-22T23:45:07.137Z,10.57
2019-03-22T23:47:38.300Z,9.40
2019-03-22T23:50:08.695Z,10.73
2019-03-22T23:52:39.490Z,11.90
2019-03-22T23:55:10.199Z,11.47
2019-03-22T23:57:40.325Z,10.83
